Terminal Aerodrome Forecast
Issued by NWS

Home | Current Version | Previous Version | Text Only | Print | Product List | Glossary Off
Versions: 1 2 3 4 5 6 7 8 9 10 11 12 13 14 15 16

000
FTUS45 KGGW 200521
TAFOLF
TAF
KOLF 200521Z 2006/2106 08006KT P6SM FEW250
     FM201800 VRB06KT P6SM SCT150
     FM210100 28012KT P6SM BKN120
     FM210200 28015G25KT P6SM SCT090 BKN120
     FM210300 28020G33KT P6SM VCSH BKN090=

USA.gov is the U.S. government's official web portal to all federal, state and local government web resources and services.